sensor_id;sensor_type;location;lat;lon;timestamp;P1;durP1;ratioP1;P2;durP2;ratioP2
41661;SDS011;27351;45.992;12.666;2023-07-31T00:01:22;1.27;;;0.83;;
41661;SDS011;27351;45.992;12.666;2023-07-31T00:03:49;2.13;;;1.13;;
41661;SDS011;27351;45.992;12.666;2023-07-31T00:06:14;2.40;;;1.10;;
41661;SDS011;27351;45.992;12.666;2023-07-31T00:08:40;2.40;;;1.03;;
41661;SDS011;27351;45.992;12.666;2023-07-31T00:11:05;1.15;;;0.90;;
41661;SDS011;27351;45.992;12.666;2023-07-31T00:13:31;2.27;;;1.07;;
41661;SDS011;27351;45.992;12.666;2023-07-31T00:15:56;2.30;;;1.10;;
41661;SDS011;27351;45.992;12.666;2023-07-31T00:18:22;1.55;;;1.00;;
41661;SDS011;27351;45.992;12.666;2023-07-31T00:20:48;2.50;;;1.20;;
41661;SDS011;27351;45.992;12.666;2023-07-31T00:23:13;1.50;;;1.10;;
41661;SDS011;27351;45.992;12.666;2023-07-31T00:25:39;3.00;;;1.00;;
41661;SDS011;27351;45.992;12.666;2023-07-31T00:28:04;2.47;;;1.17;;
41661;SDS011;27351;45.992;12.666;2023-07-31T00:30:30;3.70;;;1.20;;
41661;SDS011;27351;45.992;12.666;2023-07-31T00:32:56;3.67;;;1.13;;
41661;SDS011;27351;45.992;12.666;2023-07-31T00:35:21;2.95;;;1.40;;
41661;SDS011;27351;45.992;12.666;2023-07-31T00:37:47;3.17;;;1.20;;
41661;SDS011;27351;45.992;12.666;2023-07-31T00:40:13;3.37;;;1.30;;
41661;SDS011;27351;45.992;12.666;2023-07-31T00:42:39;2.70;;;1.27;;
41661;SDS011;27351;45.992;12.666;2023-07-31T00:45:05;1.50;;;1.10;;
41661;SDS011;27351;45.992;12.666;2023-07-31T00:47:31;1.70;;;0.98;;
41661;SDS011;27351;45.992;12.666;2023-07-31T00:49:57;2.00;;;1.00;;
41661;SDS011;27351;45.992;12.666;2023-07-31T00:52:22;2.03;;;1.17;;
41661;SDS011;27351;45.992;12.666;2023-07-31T00:54:48;2.33;;;1.20;;
41661;SDS011;27351;45.992;12.666;2023-07-31T00:57:14;2.00;;;1.20;;
41661;SDS011;27351;45.992;12.666;2023-07-31T00:59:40;2.53;;;1.20;;
41661;SDS011;27351;45.992;12.666;2023-07-31T01:02:07;2.92;;;1.05;;
41661;SDS011;27351;45.992;12.666;2023-07-31T01:04:32;1.63;;;1.03;;
41661;SDS011;27351;45.992;12.666;2023-07-31T01:07:02;2.42;;;1.30;;
41661;SDS011;27351;45.992;12.666;2023-07-31T01:09:34;2.28;;;1.27;;
41661;SDS011;27351;45.992;12.666;2023-07-31T01:12:02;1.77;;;1.08;;
41661;SDS011;27351;45.992;12.666;2023-07-31T01:14:28;1.55;;;1.10;;
41661;SDS011;27351;45.992;12.666;2023-07-31T01:16:54;2.40;;;1.27;;
41661;SDS011;27351;45.992;12.666;2023-07-31T01:19:21;2.85;;;1.75;;
41661;SDS011;27351;45.992;12.666;2023-07-31T01:21:59;2.95;;;1.23;;
41661;SDS011;27351;45.992;12.666;2023-07-31T01:27:04;2.97;;;1.10;;
41661;SDS011;27351;45.992;12.666;2023-07-31T01:31:57;2.80;;;1.30;;
41661;SDS011;27351;45.992;12.666;2023-07-31T01:34:24;2.10;;;1.30;;
41661;SDS011;27351;45.992;12.666;2023-07-31T01:36:51;2.03;;;1.10;;
41661;SDS011;27351;45.992;12.666;2023-07-31T01:39:17;1.60;;;1.10;;
41661;SDS011;27351;45.992;12.666;2023-07-31T01:41:45;3.03;;;1.10;;
41661;SDS011;27351;45.992;12.666;2023-07-31T01:44:11;4.17;;;1.30;;
41661;SDS011;27351;45.992;12.666;2023-07-31T01:46:36;3.25;;;1.02;;
41661;SDS011;27351;45.992;12.666;2023-07-31T01:49:02;1.87;;;1.10;;
41661;SDS011;27351;45.992;12.666;2023-07-31T01:51:28;4.22;;;1.60;;
41661;SDS011;27351;45.992;12.666;2023-07-31T01:53:53;4.63;;;1.85;;
41661;SDS011;27351;45.992;12.666;2023-07-31T01:56:19;2.37;;;1.10;;
41661;SDS011;27351;45.992;12.666;2023-07-31T01:58:44;2.03;;;1.00;;
41661;SDS011;27351;45.992;12.666;2023-07-31T02:01:10;2.30;;;1.23;;
41661;SDS011;27351;45.992;12.666;2023-07-31T02:03:36;2.73;;;1.37;;
41661;SDS011;27351;45.992;12.666;2023-07-31T02:06:01;2.70;;;1.40;;
41661;SDS011;27351;45.992;12.666;2023-07-31T02:08:27;2.75;;;1.20;;
41661;SDS011;27351;45.992;12.666;2023-07-31T02:10:53;2.75;;;1.30;;
41661;SDS011;27351;45.992;12.666;2023-07-31T02:13:19;2.75;;;1.30;;
41661;SDS011;27351;45.992;12.666;2023-07-31T02:15:45;1.48;;;1.05;;
41661;SDS011;27351;45.992;12.666;2023-07-31T02:18:10;2.42;;;1.10;;
41661;SDS011;27351;45.992;12.666;2023-07-31T02:20:36;2.87;;;1.30;;
41661;SDS011;27351;45.992;12.666;2023-07-31T02:23:01;3.77;;;1.20;;
41661;SDS011;27351;45.992;12.666;2023-07-31T02:25:27;2.53;;;1.15;;
41661;SDS011;27351;45.992;12.666;2023-07-31T02:27:53;2.80;;;1.20;;
41661;SDS011;27351;45.992;12.666;2023-07-31T02:30:18;3.17;;;1.20;;
41661;SDS011;27351;45.992;12.666;2023-07-31T02:32:44;2.23;;;1.07;;
41661;SDS011;27351;45.992;12.666;2023-07-31T02:35:09;3.20;;;1.30;;
41661;SDS011;27351;45.992;12.666;2023-07-31T02:37:36;5.15;;;1.45;;
41661;SDS011;27351;45.992;12.666;2023-07-31T02:40:03;1.55;;;1.10;;
41661;SDS011;27351;45.992;12.666;2023-07-31T02:42:29;2.50;;;1.20;;
41661;SDS011;27351;45.992;12.666;2023-07-31T02:44:54;3.07;;;1.20;;
41661;SDS011;27351;45.992;12.666;2023-07-31T02:47:21;2.40;;;1.20;;
41661;SDS011;27351;45.992;12.666;2023-07-31T02:49:47;3.45;;;1.10;;
41661;SDS011;27351;45.992;12.666;2023-07-31T02:52:13;2.30;;;1.00;;
41661;SDS011;27351;45.992;12.666;2023-07-31T02:54:39;4.50;;;1.30;;
41661;SDS011;27351;45.992;12.666;2023-07-31T02:57:04;3.67;;;1.00;;
41661;SDS011;27351;45.992;12.666;2023-07-31T02:59:30;2.95;;;1.17;;
41661;SDS011;27351;45.992;12.666;2023-07-31T03:01:56;1.97;;;1.10;;
41661;SDS011;27351;45.992;12.666;2023-07-31T03:04:21;5.67;;;1.70;;
41661;SDS011;27351;45.992;12.666;2023-07-31T03:06:47;1.38;;;1.02;;
41661;SDS011;27351;45.992;12.666;2023-07-31T03:09:13;3.50;;;1.30;;
41661;SDS011;27351;45.992;12.666;2023-07-31T03:11:38;4.43;;;1.10;;
41661;SDS011;27351;45.992;12.666;2023-07-31T03:14:04;3.33;;;1.10;;
41661;SDS011;27351;45.992;12.666;2023-07-31T03:16:29;3.72;;;1.48;;
41661;SDS011;27351;45.992;12.666;2023-07-31T03:18:55;3.20;;;1.40;;
41661;SDS011;27351;45.992;12.666;2023-07-31T03:21:20;2.00;;;1.10;;
41661;SDS011;27351;45.992;12.666;2023-07-31T03:23:46;1.83;;;1.20;;
41661;SDS011;27351;45.992;12.666;2023-07-31T03:26:12;1.90;;;1.00;;
41661;SDS011;27351;45.992;12.666;2023-07-31T03:28:37;2.30;;;1.00;;
41661;SDS011;27351;45.992;12.666;2023-07-31T03:31:03;2.60;;;1.10;;
41661;SDS011;27351;45.992;12.666;2023-07-31T03:33:29;1.83;;;1.13;;
41661;SDS011;27351;45.992;12.666;2023-07-31T03:35:55;3.83;;;1.30;;
41661;SDS011;27351;45.992;12.666;2023-07-31T03:38:21;3.30;;;1.27;;
41661;SDS011;27351;45.992;12.666;2023-07-31T03:40:46;3.37;;;1.20;;
41661;SDS011;27351;45.992;12.666;2023-07-31T03:43:12;2.38;;;1.17;;
41661;SDS011;27351;45.992;12.666;2023-07-31T03:45:38;2.70;;;1.17;;
41661;SDS011;27351;45.992;12.666;2023-07-31T03:48:04;2.05;;;1.00;;
41661;SDS011;27351;45.992;12.666;2023-07-31T03:50:30;2.20;;;1.20;;
41661;SDS011;27351;45.992;12.666;2023-07-31T03:52:55;2.30;;;1.20;;
41661;SDS011;27351;45.992;12.666;2023-07-31T03:55:21;3.57;;;1.00;;
41661;SDS011;27351;45.992;12.666;2023-07-31T03:57:47;1.37;;;1.00;;
41661;SDS011;27351;45.992;12.666;2023-07-31T04:00:13;2.57;;;1.17;;
41661;SDS011;27351;45.992;12.666;2023-07-31T04:02:40;1.48;;;1.00;;
41661;SDS011;27351;45.992;12.666;2023-07-31T04:05:06;1.48;;;0.80;;
41661;SDS011;27351;45.992;12.666;2023-07-31T04:07:32;2.22;;;1.10;;
41661;SDS011;27351;45.992;12.666;2023-07-31T04:09:57;3.50;;;1.10;;
41661;SDS011;27351;45.992;12.666;2023-07-31T04:12:23;1.97;;;1.07;;
41661;SDS011;27351;45.992;12.666;2023-07-31T04:14:49;5.40;;;1.00;;
41661;SDS011;27351;45.992;12.666;2023-07-31T04:17:15;2.00;;;0.90;;
41661;SDS011;27351;45.992;12.666;2023-07-31T04:19:40;2.00;;;1.07;;
41661;SDS011;27351;45.992;12.666;2023-07-31T04:22:06;1.42;;;1.00;;
41661;SDS011;27351;45.992;12.666;2023-07-31T04:24:31;2.17;;;1.10;;
41661;SDS011;27351;45.992;12.666;2023-07-31T04:26:57;1.90;;;0.80;;
41661;SDS011;27351;45.992;12.666;2023-07-31T04:29:23;1.80;;;1.08;;
41661;SDS011;27351;45.992;12.666;2023-07-31T04:31:49;1.75;;;0.80;;
41661;SDS011;27351;45.992;12.666;2023-07-31T04:34:14;1.65;;;1.00;;
41661;SDS011;27351;45.992;12.666;2023-07-31T04:36:40;1.33;;;0.80;;
41661;SDS011;27351;45.992;12.666;2023-07-31T04:39:06;2.50;;;0.80;;
41661;SDS011;27351;45.992;12.666;2023-07-31T04:41:31;1.63;;;0.80;;
41661;SDS011;27351;45.992;12.666;2023-07-31T04:43:57;1.42;;;0.90;;
41661;SDS011;27351;45.992;12.666;2023-07-31T04:46:22;1.10;;;0.90;;
41661;SDS011;27351;45.992;12.666;2023-07-31T04:48:48;1.20;;;0.70;;
41661;SDS011;27351;45.992;12.666;2023-07-31T04:51:14;2.30;;;1.00;;
41661;SDS011;27351;45.992;12.666;2023-07-31T04:53:39;2.57;;;1.27;;
41661;SDS011;27351;45.992;12.666;2023-07-31T04:56:05;1.07;;;0.80;;
41661;SDS011;27351;45.992;12.666;2023-07-31T04:58:30;2.78;;;0.90;;
41661;SDS011;27351;45.992;12.666;2023-07-31T05:00:56;2.80;;;0.80;;
41661;SDS011;27351;45.992;12.666;2023-07-31T05:03:22;1.47;;;0.80;;
41661;SDS011;27351;45.992;12.666;2023-07-31T05:05:47;2.03;;;1.00;;
41661;SDS011;27351;45.992;12.666;2023-07-31T05:08:13;0.88;;;0.68;;
41661;SDS011;27351;45.992;12.666;2023-07-31T05:10:38;1.93;;;0.90;;
41661;SDS011;27351;45.992;12.666;2023-07-31T05:13:04;1.43;;;0.80;;
41661;SDS011;27351;45.992;12.666;2023-07-31T05:15:30;1.60;;;0.80;;
41661;SDS011;27351;45.992;12.666;2023-07-31T05:17:56;4.13;;;1.60;;
41661;SDS011;27351;45.992;12.666;2023-07-31T05:20:21;2.03;;;0.73;;
41661;SDS011;27351;45.992;12.666;2023-07-31T05:22:47;3.17;;;0.90;;
41661;SDS011;27351;45.992;12.666;2023-07-31T05:25:12;1.17;;;0.65;;
41661;SDS011;27351;45.992;12.666;2023-07-31T05:27:38;1.20;;;0.80;;
41661;SDS011;27351;45.992;12.666;2023-07-31T05:30:04;2.23;;;0.97;;
41661;SDS011;27351;45.992;12.666;2023-07-31T05:32:30;1.73;;;0.75;;
41661;SDS011;27351;45.992;12.666;2023-07-31T05:34:56;2.47;;;0.90;;
41661;SDS011;27351;45.992;12.666;2023-07-31T05:37:21;0.77;;;0.60;;
41661;SDS011;27351;45.992;12.666;2023-07-31T05:39:47;1.67;;;0.70;;
41661;SDS011;27351;45.992;12.666;2023-07-31T05:42:12;2.23;;;0.77;;
41661;SDS011;27351;45.992;12.666;2023-07-31T05:44:38;1.20;;;0.90;;
41661;SDS011;27351;45.992;12.666;2023-07-31T05:47:04;2.20;;;0.85;;
41661;SDS011;27351;45.992;12.666;2023-07-31T05:49:30;1.55;;;0.80;;
41661;SDS011;27351;45.992;12.666;2023-07-31T05:51:55;1.43;;;0.70;;
41661;SDS011;27351;45.992;12.666;2023-07-31T05:54:21;3.13;;;0.77;;
41661;SDS011;27351;45.992;12.666;2023-07-31T05:56:46;1.58;;;0.85;;
41661;SDS011;27351;45.992;12.666;2023-07-31T05:59:12;1.37;;;0.77;;
41661;SDS011;27351;45.992;12.666;2023-07-31T06:01:38;1.60;;;0.60;;
41661;SDS011;27351;45.992;12.666;2023-07-31T06:04:04;1.23;;;0.60;;
41661;SDS011;27351;45.992;12.666;2023-07-31T06:06:30;1.07;;;0.60;;
41661;SDS011;27351;45.992;12.666;2023-07-31T06:08:56;1.53;;;0.73;;
41661;SDS011;27351;45.992;12.666;2023-07-31T06:11:21;2.20;;;0.70;;
41661;SDS011;27351;45.992;12.666;2023-07-31T06:13:47;2.37;;;0.70;;
41661;SDS011;27351;45.992;12.666;2023-07-31T06:16:14;1.40;;;0.63;;
41661;SDS011;27351;45.992;12.666;2023-07-31T06:18:41;1.42;;;0.70;;
41661;SDS011;27351;45.992;12.666;2023-07-31T06:21:06;2.70;;;0.80;;
41661;SDS011;27351;45.992;12.666;2023-07-31T06:23:32;2.43;;;0.80;;
41661;SDS011;27351;45.992;12.666;2023-07-31T06:25:57;5.07;;;1.30;;
41661;SDS011;27351;45.992;12.666;2023-07-31T06:28:33;1.10;;;0.70;;
41661;SDS011;27351;45.992;12.666;2023-07-31T06:30:58;1.00;;;0.60;;
41661;SDS011;27351;45.992;12.666;2023-07-31T06:33:24;4.17;;;0.70;;
41661;SDS011;27351;45.992;12.666;2023-07-31T06:35:50;1.73;;;0.60;;
41661;SDS011;27351;45.992;12.666;2023-07-31T06:38:18;1.00;;;0.60;;
41661;SDS011;27351;45.992;12.666;2023-07-31T06:40:43;1.70;;;0.70;;
41661;SDS011;27351;45.992;12.666;2023-07-31T06:43:09;0.90;;;0.60;;
41661;SDS011;27351;45.992;12.666;2023-07-31T06:45:35;2.10;;;0.70;;
41661;SDS011;27351;45.992;12.666;2023-07-31T06:48:01;0.73;;;0.60;;
41661;SDS011;27351;45.992;12.666;2023-07-31T06:50:30;1.75;;;0.65;;
41661;SDS011;27351;45.992;12.666;2023-07-31T06:52:56;1.60;;;0.90;;
41661;SDS011;27351;45.992;12.666;2023-07-31T06:55:22;2.05;;;0.90;;
41661;SDS011;27351;45.992;12.666;2023-07-31T06:57:52;0.90;;;0.50;;
41661;SDS011;27351;45.992;12.666;2023-07-31T07:00:19;1.20;;;0.52;;
41661;SDS011;27351;45.992;12.666;2023-07-31T07:02:45;2.55;;;0.68;;
41661;SDS011;27351;45.992;12.666;2023-07-31T07:05:13;1.60;;;0.77;;
41661;SDS011;27351;45.992;12.666;2023-07-31T07:07:39;1.30;;;0.53;;
41661;SDS011;27351;45.992;12.666;2023-07-31T07:10:04;0.93;;;0.52;;
41661;SDS011;27351;45.992;12.666;2023-07-31T07:12:30;0.60;;;0.55;;
41661;SDS011;27351;45.992;12.666;2023-07-31T07:14:56;1.00;;;0.50;;
41661;SDS011;27351;45.992;12.666;2023-07-31T07:17:23;1.97;;;0.70;;
41661;SDS011;27351;45.992;12.666;2023-07-31T07:19:48;1.90;;;0.60;;
41661;SDS011;27351;45.992;12.666;2023-07-31T07:22:14;0.95;;;0.47;;
41661;SDS011;27351;45.992;12.666;2023-07-31T07:24:41;2.60;;;0.80;;
41661;SDS011;27351;45.992;12.666;2023-07-31T07:27:07;1.10;;;0.50;;
41661;SDS011;27351;45.992;12.666;2023-07-31T07:29:35;1.07;;;0.50;;
41661;SDS011;27351;45.992;12.666;2023-07-31T07:32:01;1.60;;;0.50;;
41661;SDS011;27351;45.992;12.666;2023-07-31T07:34:27;2.00;;;0.75;;
41661;SDS011;27351;45.992;12.666;2023-07-31T07:36:53;2.13;;;0.60;;
41661;SDS011;27351;45.992;12.666;2023-07-31T07:39:19;3.17;;;0.70;;
41661;SDS011;27351;45.992;12.666;2023-07-31T07:41:44;1.45;;;0.80;;
41661;SDS011;27351;45.992;12.666;2023-07-31T07:44:10;1.83;;;0.70;;
41661;SDS011;27351;45.992;12.666;2023-07-31T07:46:35;2.10;;;0.90;;
41661;SDS011;27351;45.992;12.666;2023-07-31T07:49:01;1.30;;;0.77;;
41661;SDS011;27351;45.992;12.666;2023-07-31T07:51:26;1.13;;;0.60;;
41661;SDS011;27351;45.992;12.666;2023-07-31T07:53:52;1.40;;;0.70;;
41661;SDS011;27351;45.992;12.666;2023-07-31T07:56:18;1.10;;;0.70;;
41661;SDS011;27351;45.992;12.666;2023-07-31T07:58:43;2.10;;;0.70;;
41661;SDS011;27351;45.992;12.666;2023-07-31T08:01:09;1.35;;;0.70;;
41661;SDS011;27351;45.992;12.666;2023-07-31T08:03:35;2.03;;;0.80;;
41661;SDS011;27351;45.992;12.666;2023-07-31T08:06:00;1.45;;;0.60;;
41661;SDS011;27351;45.992;12.666;2023-07-31T08:08:27;2.10;;;0.77;;
41661;SDS011;27351;45.992;12.666;2023-07-31T08:10:53;7.50;;;1.07;;
41661;SDS011;27351;45.992;12.666;2023-07-31T08:13:19;1.40;;;0.70;;
41661;SDS011;27351;45.992;12.666;2023-07-31T08:15:44;1.83;;;0.75;;
41661;SDS011;27351;45.992;12.666;2023-07-31T08:18:10;1.13;;;0.70;;
41661;SDS011;27351;45.992;12.666;2023-07-31T08:20:37;1.10;;;0.70;;
41661;SDS011;27351;45.992;12.666;2023-07-31T08:23:02;2.28;;;0.80;;
41661;SDS011;27351;45.992;12.666;2023-07-31T08:25:28;1.23;;;0.57;;
41661;SDS011;27351;45.992;12.666;2023-07-31T08:27:54;1.20;;;0.60;;
41661;SDS011;27351;45.992;12.666;2023-07-31T08:30:19;1.40;;;0.60;;
41661;SDS011;27351;45.992;12.666;2023-07-31T08:32:45;1.73;;;0.63;;
41661;SDS011;27351;45.992;12.666;2023-07-31T08:35:11;1.23;;;0.70;;
41661;SDS011;27351;45.992;12.666;2023-07-31T08:37:37;1.27;;;0.52;;
41661;SDS011;27351;45.992;12.666;2023-07-31T08:40:03;1.13;;;0.60;;
41661;SDS011;27351;45.992;12.666;2023-07-31T08:42:29;2.47;;;0.73;;
41661;SDS011;27351;45.992;12.666;2023-07-31T08:44:55;1.33;;;0.70;;
41661;SDS011;27351;45.992;12.666;2023-07-31T08:47:21;1.63;;;0.80;;
41661;SDS011;27351;45.992;12.666;2023-07-31T08:49:47;1.65;;;0.70;;
41661;SDS011;27351;45.992;12.666;2023-07-31T08:52:13;2.40;;;0.70;;
41661;SDS011;27351;45.992;12.666;2023-07-31T08:54:38;2.08;;;0.82;;
41661;SDS011;27351;45.992;12.666;2023-07-31T08:57:05;1.48;;;0.77;;
41661;SDS011;27351;45.992;12.666;2023-07-31T08:59:31;2.10;;;1.00;;
41661;SDS011;27351;45.992;12.666;2023-07-31T09:02:01;3.45;;;0.85;;
41661;SDS011;27351;45.992;12.666;2023-07-31T09:04:28;1.58;;;0.80;;
41661;SDS011;27351;45.992;12.666;2023-07-31T09:06:55;1.40;;;0.80;;
41661;SDS011;27351;45.992;12.666;2023-07-31T09:09:22;1.80;;;1.00;;
41661;SDS011;27351;45.992;12.666;2023-07-31T09:11:49;1.40;;;0.50;;
41661;SDS011;27351;45.992;12.666;2023-07-31T09:14:15;3.17;;;0.90;;
41661;SDS011;27351;45.992;12.666;2023-07-31T09:16:54;2.37;;;0.80;;
41661;SDS011;27351;45.992;12.666;2023-07-31T09:19:31;3.60;;;0.80;;
41661;SDS011;27351;45.992;12.666;2023-07-31T09:21:59;1.40;;;0.65;;
41661;SDS011;27351;45.992;12.666;2023-07-31T09:24:34;1.70;;;0.90;;
41661;SDS011;27351;45.992;12.666;2023-07-31T09:27:00;1.63;;;0.80;;
41661;SDS011;27351;45.992;12.666;2023-07-31T09:29:29;1.55;;;0.80;;
41661;SDS011;27351;45.992;12.666;2023-07-31T09:31:55;1.27;;;0.65;;
41661;SDS011;27351;45.992;12.666;2023-07-31T09:34:20;1.50;;;0.60;;
41661;SDS011;27351;45.992;12.666;2023-07-31T09:36:53;5.03;;;1.00;;
41661;SDS011;27351;45.992;12.666;2023-07-31T09:39:19;1.83;;;0.70;;
41661;SDS011;27351;45.992;12.666;2023-07-31T09:41:48;1.92;;;0.75;;
41661;SDS011;27351;45.992;12.666;2023-07-31T09:44:18;4.15;;;1.33;;
41661;SDS011;27351;45.992;12.666;2023-07-31T09:46:44;2.33;;;0.80;;
41661;SDS011;27351;45.992;12.666;2023-07-31T09:49:10;2.47;;;0.70;;
41661;SDS011;27351;45.992;12.666;2023-07-31T09:51:37;1.87;;;0.80;;
41661;SDS011;27351;45.992;12.666;2023-07-31T09:54:13;1.65;;;0.80;;
41661;SDS011;27351;45.992;12.666;2023-07-31T09:56:41;2.60;;;0.90;;
41661;SDS011;27351;45.992;12.666;2023-07-31T09:59:07;1.07;;;0.60;;
41661;SDS011;27351;45.992;12.666;2023-07-31T10:01:33;2.13;;;1.07;;
41661;SDS011;27351;45.992;12.666;2023-07-31T10:03:59;1.67;;;1.05;;
41661;SDS011;27351;45.992;12.666;2023-07-31T10:06:25;1.58;;;0.80;;
41661;SDS011;27351;45.992;12.666;2023-07-31T10:08:51;1.27;;;0.65;;
41661;SDS011;27351;45.992;12.666;2023-07-31T10:11:18;2.63;;;0.80;;
41661;SDS011;27351;45.992;12.666;2023-07-31T10:13:44;1.75;;;0.88;;
41661;SDS011;27351;45.992;12.666;2023-07-31T10:16:10;2.38;;;1.00;;
41661;SDS011;27351;45.992;12.666;2023-07-31T10:18:37;1.60;;;0.90;;
41661;SDS011;27351;45.992;12.666;2023-07-31T10:21:03;1.50;;;0.85;;
41661;SDS011;27351;45.992;12.666;2023-07-31T10:23:29;2.45;;;1.00;;
41661;SDS011;27351;45.992;12.666;2023-07-31T10:25:55;4.53;;;1.10;;
41661;SDS011;27351;45.992;12.666;2023-07-31T10:28:22;1.63;;;0.70;;
41661;SDS011;27351;45.992;12.666;2023-07-31T10:30:50;3.10;;;0.90;;
41661;SDS011;27351;45.992;12.666;2023-07-31T10:33:16;2.28;;;0.95;;
41661;SDS011;27351;45.992;12.666;2023-07-31T10:35:42;3.00;;;0.82;;
41661;SDS011;27351;45.992;12.666;2023-07-31T10:38:11;2.60;;;0.90;;
41661;SDS011;27351;45.992;12.666;2023-07-31T10:40:37;1.77;;;0.80;;
41661;SDS011;27351;45.992;12.666;2023-07-31T10:43:03;2.60;;;0.85;;
41661;SDS011;27351;45.992;12.666;2023-07-31T10:45:32;2.60;;;0.97;;
41661;SDS011;27351;45.992;12.666;2023-07-31T10:50:30;2.00;;;0.70;;
41661;SDS011;27351;45.992;12.666;2023-07-31T10:52:58;3.30;;;1.00;;
41661;SDS011;27351;45.992;12.666;2023-07-31T10:57:52;1.73;;;0.80;;
41661;SDS011;27351;45.992;12.666;2023-07-31T11:03:03;2.08;;;0.80;;
41661;SDS011;27351;45.992;12.666;2023-07-31T11:08:17;1.30;;;0.73;;
41661;SDS011;27351;45.992;12.666;2023-07-31T11:10:43;1.45;;;0.80;;
41661;SDS011;27351;45.992;12.666;2023-07-31T11:13:12;2.43;;;1.10;;
41661;SDS011;27351;45.992;12.666;2023-07-31T11:15:38;1.75;;;0.70;;
41661;SDS011;27351;45.992;12.666;2023-07-31T11:18:04;1.92;;;0.90;;
41661;SDS011;27351;45.992;12.666;2023-07-31T11:20:34;1.53;;;0.80;;
41661;SDS011;27351;45.992;12.666;2023-07-31T11:23:04;2.17;;;1.00;;
41661;SDS011;27351;45.992;12.666;2023-07-31T11:25:31;1.50;;;0.85;;
41661;SDS011;27351;45.992;12.666;2023-07-31T11:27:58;1.65;;;0.88;;
41661;SDS011;27351;45.992;12.666;2023-07-31T11:30:28;2.08;;;0.82;;
41661;SDS011;27351;45.992;12.666;2023-07-31T11:32:54;1.57;;;0.90;;
41661;SDS011;27351;45.992;12.666;2023-07-31T11:35:20;1.48;;;0.70;;
41661;SDS011;27351;45.992;12.666;2023-07-31T11:37:46;3.17;;;0.87;;
41661;SDS011;27351;45.992;12.666;2023-07-31T11:40:12;2.08;;;1.00;;
41661;SDS011;27351;45.992;12.666;2023-07-31T11:42:37;2.20;;;1.13;;
41661;SDS011;27351;45.992;12.666;2023-07-31T11:45:04;1.50;;;0.70;;
41661;SDS011;27351;45.992;12.666;2023-07-31T11:47:29;1.65;;;0.90;;
41661;SDS011;27351;45.992;12.666;2023-07-31T11:49:56;1.83;;;0.80;;
41661;SDS011;27351;45.992;12.666;2023-07-31T11:52:21;2.57;;;1.40;;
41661;SDS011;27351;45.992;12.666;2023-07-31T11:54:48;1.75;;;0.80;;
41661;SDS011;27351;45.992;12.666;2023-07-31T11:57:14;1.88;;;0.85;;
41661;SDS011;27351;45.992;12.666;2023-07-31T11:59:40;2.30;;;1.03;;
41661;SDS011;27351;45.992;12.666;2023-07-31T12:02:06;1.20;;;0.70;;
41661;SDS011;27351;45.992;12.666;2023-07-31T12:04:32;1.20;;;0.80;;
41661;SDS011;27351;45.992;12.666;2023-07-31T12:06:59;2.50;;;0.90;;
41661;SDS011;27351;45.992;12.666;2023-07-31T12:09:26;2.03;;;0.80;;
41661;SDS011;27351;45.992;12.666;2023-07-31T12:11:51;1.70;;;0.77;;
41661;SDS011;27351;45.992;12.666;2023-07-31T12:14:20;1.50;;;0.70;;
41661;SDS011;27351;45.992;12.666;2023-07-31T12:16:47;2.63;;;0.80;;
41661;SDS011;27351;45.992;12.666;2023-07-31T12:19:13;1.77;;;0.90;;
41661;SDS011;27351;45.992;12.666;2023-07-31T12:21:38;1.55;;;0.90;;
41661;SDS011;27351;45.992;12.666;2023-07-31T12:24:04;5.93;;;1.10;;
41661;SDS011;27351;45.992;12.666;2023-07-31T12:26:36;2.42;;;0.90;;
41661;SDS011;27351;45.992;12.666;2023-07-31T12:29:01;1.30;;;0.90;;
41661;SDS011;27351;45.992;12.666;2023-07-31T12:31:28;1.55;;;0.85;;
41661;SDS011;27351;45.992;12.666;2023-07-31T12:33:55;1.95;;;0.90;;
41661;SDS011;27351;45.992;12.666;2023-07-31T12:36:22;1.42;;;0.80;;
41661;SDS011;27351;45.992;12.666;2023-07-31T12:38:49;1.47;;;0.80;;
41661;SDS011;27351;45.992;12.666;2023-07-31T12:41:15;1.77;;;0.90;;
41661;SDS011;27351;45.992;12.666;2023-07-31T12:43:41;1.33;;;0.70;;
41661;SDS011;27351;45.992;12.666;2023-07-31T12:46:07;2.47;;;0.82;;
41661;SDS011;27351;45.992;12.666;2023-07-31T12:48:35;2.88;;;0.80;;
41661;SDS011;27351;45.992;12.666;2023-07-31T12:51:02;1.23;;;0.80;;
41661;SDS011;27351;45.992;12.666;2023-07-31T12:53:28;2.47;;;1.00;;
41661;SDS011;27351;45.992;12.666;2023-07-31T12:55:55;1.17;;;0.70;;
41661;SDS011;27351;45.992;12.666;2023-07-31T12:58:21;1.45;;;0.70;;
41661;SDS011;27351;45.992;12.666;2023-07-31T13:00:47;1.10;;;0.70;;
41661;SDS011;27351;45.992;12.666;2023-07-31T13:03:12;1.40;;;0.77;;
41661;SDS011;27351;45.992;12.666;2023-07-31T13:05:38;2.80;;;0.87;;
41661;SDS011;27351;45.992;12.666;2023-07-31T13:08:03;1.20;;;0.70;;
41661;SDS011;27351;45.992;12.666;2023-07-31T13:10:29;1.23;;;0.70;;
41661;SDS011;27351;45.992;12.666;2023-07-31T13:12:55;1.50;;;0.90;;
41661;SDS011;27351;45.992;12.666;2023-07-31T13:15:21;1.35;;;0.90;;
41661;SDS011;27351;45.992;12.666;2023-07-31T13:17:46;2.53;;;0.82;;
41661;SDS011;27351;45.992;12.666;2023-07-31T13:20:12;1.87;;;0.73;;
41661;SDS011;27351;45.992;12.666;2023-07-31T13:22:38;1.02;;;0.70;;
41661;SDS011;27351;45.992;12.666;2023-07-31T13:25:04;1.43;;;0.80;;
41661;SDS011;27351;45.992;12.666;2023-07-31T13:27:30;1.60;;;0.82;;
41661;SDS011;27351;45.992;12.666;2023-07-31T13:29:56;1.63;;;0.70;;
41661;SDS011;27351;45.992;12.666;2023-07-31T13:32:21;1.90;;;0.80;;
41661;SDS011;27351;45.992;12.666;2023-07-31T13:34:48;2.47;;;0.80;;
41661;SDS011;27351;45.992;12.666;2023-07-31T13:37:13;2.53;;;0.95;;
41661;SDS011;27351;45.992;12.666;2023-07-31T13:39:39;1.37;;;0.80;;
41661;SDS011;27351;45.992;12.666;2023-07-31T13:42:06;1.93;;;0.90;;
41661;SDS011;27351;45.992;12.666;2023-07-31T13:44:36;1.58;;;0.90;;
41661;SDS011;27351;45.992;12.666;2023-07-31T13:47:02;1.45;;;0.80;;
41661;SDS011;27351;45.992;12.666;2023-07-31T13:49:28;1.42;;;0.85;;
41661;SDS011;27351;45.992;12.666;2023-07-31T13:51:53;2.20;;;0.80;;
41661;SDS011;27351;45.992;12.666;2023-07-31T13:54:19;1.40;;;0.90;;
41661;SDS011;27351;45.992;12.666;2023-07-31T13:56:45;1.40;;;0.85;;
41661;SDS011;27351;45.992;12.666;2023-07-31T13:59:11;1.90;;;1.00;;
41661;SDS011;27351;45.992;12.666;2023-07-31T14:01:37;1.20;;;0.77;;
41661;SDS011;27351;45.992;12.666;2023-07-31T14:04:02;1.45;;;0.82;;
41661;SDS011;27351;45.992;12.666;2023-07-31T14:06:28;1.45;;;0.88;;
41661;SDS011;27351;45.992;12.666;2023-07-31T14:08:54;1.27;;;0.80;;
41661;SDS011;27351;45.992;12.666;2023-07-31T14:11:21;1.30;;;0.80;;
41661;SDS011;27351;45.992;12.666;2023-07-31T14:13:47;2.30;;;1.00;;
41661;SDS011;27351;45.992;12.666;2023-07-31T14:16:13;1.33;;;0.80;;
41661;SDS011;27351;45.992;12.666;2023-07-31T14:18:39;2.22;;;1.10;;
41661;SDS011;27351;45.992;12.666;2023-07-31T14:21:04;2.60;;;1.13;;
41661;SDS011;27351;45.992;12.666;2023-07-31T14:23:30;1.10;;;0.73;;
41661;SDS011;27351;45.992;12.666;2023-07-31T14:25:55;2.03;;;0.80;;
41661;SDS011;27351;45.992;12.666;2023-07-31T14:28:21;1.70;;;0.80;;
41661;SDS011;27351;45.992;12.666;2023-07-31T14:30:46;1.07;;;0.70;;
41661;SDS011;27351;45.992;12.666;2023-07-31T14:33:12;3.38;;;0.90;;
41661;SDS011;27351;45.992;12.666;2023-07-31T14:35:38;1.73;;;1.03;;
41661;SDS011;27351;45.992;12.666;2023-07-31T14:38:03;0.82;;;0.60;;
41661;SDS011;27351;45.992;12.666;2023-07-31T14:40:29;2.73;;;0.80;;
41661;SDS011;27351;45.992;12.666;2023-07-31T14:42:55;2.63;;;1.10;;